createdAt,value
2022-08-30T00:07:40.357Z,236.97
2022-08-30T00:17:44.553Z,236.27
2022-08-30T00:27:49.934Z,232.10
2022-08-30T00:37:53.395Z,239.07
2022-08-30T00:48:00.252Z,228.40
2022-08-30T00:58:08.276Z,235.37
2022-08-30T01:08:13.533Z,227.97
2022-08-30T01:18:18.788Z,234.10
2022-08-30T01:28:28.280Z,230.10
2022-08-30T01:38:36.513Z,232.17
2022-08-30T01:48:50.343Z,230.47
2022-08-30T01:59:02.847Z,237.20
2022-08-30T02:09:08.190Z,231.70
2022-08-30T02:19:12.864Z,228.97
2022-08-30T02:29:20.151Z,224.63
2022-08-30T02:39:23.933Z,230.10
2022-08-30T02:49:35.959Z,239.30
2022-08-30T02:59:44.070Z,227.10
2022-08-30T03:09:48.869Z,230.87
2022-08-30T03:19:52.330Z,224.83
2022-08-30T03:29:57.427Z,227.67
2022-08-30T03:40:00.797Z,228.10
2022-08-30T03:50:09.404Z,222.00
2022-08-30T04:00:15.283Z,227.73
2022-08-30T04:10:21.343Z,225.33
2022-08-30T04:20:24.969Z,226.37
2022-08-30T04:30:29.914Z,232.27
2022-08-30T04:40:33.434Z,227.80
2022-08-30T04:50:38.238Z,230.50
2022-08-30T05:00:48.206Z,223.13
2022-08-30T05:10:54.241Z,230.37
2022-08-30T05:21:06.371Z,237.33
2022-08-30T05:31:19.277Z,230.70
2022-08-30T05:41:26.655Z,236.60
2022-08-30T05:51:35.142Z,241.07
2022-08-30T06:01:41.879Z,240.93
2022-08-30T06:11:47.813Z,245.30
2022-08-30T06:21:52.624Z,234.20
2022-08-30T06:31:59.091Z,240.73
2022-08-30T06:42:02.366Z,240.53
2022-08-30T06:52:10.772Z,229.93
2022-08-30T07:02:14.618Z,235.97
2022-08-30T07:12:19.372Z,236.63
2022-08-30T07:22:23.376Z,233.43
2022-08-30T07:32:28.114Z,242.27
2022-08-30T07:42:32.164Z,240.25
2022-08-30T08:02:42.558Z,248.20
2022-08-30T08:12:47.791Z,245.63
2022-08-30T08:22:51.757Z,238.60
2022-08-30T08:32:57.175Z,248.25
2022-08-30T08:43:07.142Z,249.85
2022-08-30T08:53:45.969Z,252.02
2022-08-30T09:03:51.820Z,249.70
2022-08-30T09:13:56.888Z,249.00
2022-08-30T09:24:04.699Z,255.30
2022-08-30T09:34:17.624Z,223.75
2022-08-30T09:44:24.802Z,233.30
2022-08-30T09:54:37.643Z,228.45
2022-08-30T10:04:49.136Z,226.85
2022-08-30T10:15:07.673Z,218.57
2022-08-30T10:25:16.114Z,199.38
2022-08-30T10:35:25.987Z,202.18
2022-08-30T10:45:34.879Z,203.75
2022-08-30T10:55:50.135Z,200.35
2022-08-30T11:06:26.010Z,207.20
2022-08-30T11:16:41.437Z,206.60
2022-08-30T11:27:02.765Z,202.75
2022-08-30T11:37:09.703Z,209.38
2022-08-30T11:47:47.862Z,204.18
2022-08-30T11:58:02.084Z,210.23
2022-08-30T12:08:09.008Z,188.32
2022-08-30T12:18:31.131Z,198.63
2022-08-30T12:28:34.706Z,200.55
2022-08-30T12:38:39.413Z,199.48
2022-08-30T12:48:43.502Z,191.68
2022-08-30T12:58:50.845Z,195.27
2022-08-30T13:08:55.592Z,201.65
2022-08-30T13:19:29.327Z,213.38
2022-08-30T13:29:32.751Z,223.90
2022-08-30T13:39:37.754Z,220.85
2022-08-30T13:49:45.276Z,230.95
2022-08-30T13:59:51.061Z,224.00
2022-08-30T14:09:54.647Z,235.93
2022-08-30T14:20:19.673Z,229.75
2022-08-30T14:30:23.362Z,235.15
2022-08-30T14:40:28.233Z,228.98
2022-08-30T14:50:31.654Z,247.63
2022-08-30T15:00:36.588Z,266.40
2022-08-30T15:10:42.298Z,241.65
2022-08-30T15:20:49.460Z,235.60
2022-08-30T15:30:52.796Z,247.00
2022-08-30T15:41:00.097Z,243.15
2022-08-30T15:51:07.426Z,239.70
2022-08-30T16:01:15.763Z,238.27
2022-08-30T16:11:24.793Z,239.30
2022-08-30T16:21:32.623Z,235.17
2022-08-30T16:31:37.343Z,241.77
2022-08-30T16:41:44.732Z,246.70
2022-08-30T16:51:49.563Z,239.03
2022-08-30T17:01:56.491Z,280.63
2022-08-30T17:12:00.308Z,240.90
2022-08-30T17:22:08.706Z,231.73
2022-08-30T17:32:12.176Z,241.73
2022-08-30T17:42:17.451Z,239.47
2022-08-30T17:52:20.779Z,239.50
2022-08-30T18:02:30.024Z,241.70
2022-08-30T18:12:33.950Z,232.97
2022-08-30T18:22:39.176Z,233.67
2022-08-30T18:32:43.664Z,228.53
2022-08-30T18:42:48.385Z,228.80
2022-08-30T18:52:53.013Z,231.57
2022-08-30T19:03:02.776Z,237.00
2022-08-30T19:13:06.376Z,239.53
2022-08-30T19:23:11.580Z,249.03
2022-08-30T19:33:15.320Z,246.97
2022-08-30T19:43:20.493Z,240.17
2022-08-30T19:53:24.762Z,236.57
2022-08-30T20:03:30.365Z,238.73
2022-08-30T20:13:34.462Z,240.17
2022-08-30T20:23:39.751Z,234.07
2022-08-30T20:33:44.337Z,236.37
2022-08-30T20:43:50.474Z,231.73
2022-08-30T20:53:55.193Z,237.03
2022-08-30T21:04:00.817Z,234.97
2022-08-30T21:14:05.872Z,233.37
2022-08-30T21:24:11.227Z,235.00
2022-08-30T21:34:17.424Z,241.30
2022-08-30T21:44:26.500Z,238.83
2022-08-30T21:54:31.557Z,232.90
2022-08-30T22:04:37.259Z,231.77
2022-08-30T22:14:41.643Z,234.63
2022-08-30T22:24:46.793Z,235.53
2022-08-30T22:34:51.120Z,232.40
2022-08-30T22:44:56.437Z,234.17
2022-08-30T22:55:00.293Z,234.27
2022-08-30T23:05:07.202Z,245.83
2022-08-30T23:15:14.858Z,242.30
2022-08-30T23:25:41.563Z,235.90
2022-08-30T23:36:05.690Z,233.53
2022-08-30T23:46:28.541Z,232.27
2022-08-30T23:56:49.901Z,231.00
